createdAt,value
2018-01-01T00:02:05.523Z,98842
2018-01-01T00:04:33.680Z,98849
2018-01-01T00:07:02.733Z,98844
2018-01-01T00:09:31.508Z,98852
2018-01-01T00:12:01.004Z,98832
2018-01-01T00:14:30.073Z,98831
2018-01-01T00:17:00.241Z,98843
2018-01-01T00:19:28.528Z,98850
2018-01-01T00:21:56.787Z,98853
2018-01-01T00:24:25.175Z,98847
2018-01-01T00:26:53.724Z,98838
2018-01-01T00:29:22.897Z,98866
2018-01-01T00:31:52.456Z,98854
2018-01-01T00:34:20.815Z,98846
2018-01-01T00:36:49.300Z,98830
2018-01-01T00:39:18.361Z,98841
2018-01-01T00:41:48.419Z,98829
2018-01-01T00:44:16.960Z,98836
2018-01-01T00:46:46.192Z,98836
2018-01-01T00:49:15.316Z,98839
2018-01-01T00:51:43.681Z,98849
2018-01-01T00:54:13.997Z,98843
2018-01-01T00:56:42.673Z,98843
2018-01-01T00:59:12.581Z,98839
2018-01-01T01:01:41.964Z,98848
2018-01-01T01:04:12.558Z,98844
2018-01-01T01:06:42.672Z,98861
2018-01-01T01:09:12.084Z,98867
2018-01-01T01:11:40.860Z,98871
2018-01-01T01:14:10.084Z,98883
2018-01-01T01:16:39.189Z,98877
2018-01-01T01:19:07.668Z,98873
2018-01-01T01:21:37.535Z,98876
2018-01-01T01:24:06.932Z,98877
2018-01-01T01:26:35.277Z,98886
2018-01-01T01:29:05.139Z,98875
2018-01-01T01:31:34.432Z,98889
2018-01-01T01:34:04.797Z,98941
2018-01-01T01:36:33.168Z,98904
2018-01-01T01:39:02.780Z,98890
2018-01-01T01:41:31.800Z,98898
2018-01-01T01:44:00.953Z,98911
2018-01-01T01:46:31.336Z,98927
2018-01-01T01:48:59.704Z,98911
2018-01-01T01:51:27.829Z,98917
2018-01-01T01:53:56.404Z,98917
2018-01-01T01:56:24.519Z,98926
2018-01-01T01:58:54.161Z,98917
2018-01-01T02:01:22.384Z,98916
2018-01-01T02:03:50.697Z,98907
2018-01-01T02:06:18.865Z,98928
2018-01-01T02:08:47.728Z,98928
2018-01-01T02:11:15.884Z,98926
2018-01-01T02:13:44.061Z,98930
2018-01-01T02:16:12.252Z,98913
2018-01-01T02:18:40.425Z,98908
2018-01-01T02:21:08.588Z,98917
2018-01-01T02:23:36.766Z,98909
2018-01-01T02:26:04.964Z,98907
2018-01-01T02:28:33.120Z,98909
2018-01-01T02:31:01.314Z,98902
2018-01-01T02:33:29.464Z,98896
2018-01-01T02:35:57.581Z,98897
2018-01-01T02:38:25.821Z,98892
2018-01-01T02:40:54.306Z,98887
2018-01-01T02:43:24.066Z,98888
2018-01-01T02:45:52.219Z,98895
2018-01-01T02:48:21.141Z,98877
2018-01-01T02:50:49.304Z,98885
2018-01-01T02:53:17.607Z,98889
2018-01-01T02:55:46.001Z,98898
2018-01-01T02:58:14.124Z,98893
2018-01-01T03:00:43.448Z,98890
2018-01-01T03:03:11.622Z,98892
2018-01-01T03:05:39.801Z,98885
2018-01-01T03:08:07.938Z,98896
2018-01-01T03:10:36.109Z,98902
2018-01-01T03:13:05.260Z,98885
2018-01-01T03:15:33.503Z,98894
2018-01-01T03:18:01.781Z,98888
2018-01-01T03:20:30.696Z,98893
2018-01-01T03:22:58.820Z,98899
2018-01-01T03:25:26.978Z,98890
2018-01-01T03:27:55.090Z,98883
2018-01-01T03:30:23.897Z,98888
2018-01-01T03:32:52.048Z,98886
2018-01-01T03:35:20.939Z,98883
2018-01-01T03:37:49.177Z,98885
2018-01-01T03:40:17.599Z,98883
2018-01-01T03:42:45.719Z,98881
2018-01-01T03:45:14.262Z,98867
2018-01-01T03:47:42.445Z,98875
2018-01-01T03:50:10.560Z,98869
2018-01-01T03:52:38.761Z,98874
2018-01-01T03:55:07.620Z,98875
2018-01-01T03:57:35.782Z,98865
2018-01-01T04:00:04.068Z,98851
2018-01-01T04:02:32.533Z,98873
2018-01-01T04:05:00.709Z,98865
2018-01-01T04:07:28.844Z,98847
2018-01-01T04:09:56.958Z,98862
2018-01-01T04:12:25.081Z,98855
2018-01-01T04:14:54.005Z,98855
2018-01-01T04:17:22.140Z,98863
2018-01-01T04:19:51.024Z,98858
2018-01-01T04:22:19.183Z,98860
2018-01-01T04:24:47.323Z,98861
2018-01-01T04:27:15.843Z,98874
2018-01-01T04:29:44.020Z,98888
2018-01-01T04:32:12.700Z,98880
2018-01-01T04:34:40.820Z,98874
2018-01-01T04:37:08.977Z,98885
2018-01-01T04:39:37.845Z,98870
2018-01-01T04:42:06.014Z,98862
2018-01-01T04:44:34.417Z,98863
2018-01-01T04:47:02.585Z,98858
2018-01-01T04:49:31.174Z,98848
2018-01-01T04:52:00.045Z,98849
2018-01-01T04:54:28.181Z,98838
2018-01-01T04:56:56.326Z,98846
2018-01-01T04:59:24.484Z,98837
2018-01-01T05:01:53.625Z,98833
2018-01-01T05:04:21.810Z,98826
2018-01-01T05:06:49.998Z,98848
2018-01-01T05:09:18.120Z,98833
2018-01-01T05:11:46.354Z,98840
2018-01-01T05:14:14.844Z,98829
2018-01-01T05:16:43.065Z,98834
2018-01-01T05:19:11.328Z,98832
2018-01-01T05:21:39.509Z,98824
2018-01-01T05:24:07.657Z,98830
2018-01-01T05:26:35.840Z,98835
2018-01-01T05:29:04.718Z,98826
2018-01-01T05:31:32.882Z,98836
2018-01-01T05:34:01.014Z,98842
2018-01-01T05:36:29.177Z,98840
2018-01-01T05:38:57.336Z,98845
2018-01-01T05:41:25.541Z,98836
2018-01-01T05:43:54.421Z,98836
2018-01-01T05:46:22.604Z,98855
2018-01-01T05:48:50.734Z,98857
2018-01-01T05:51:19.597Z,98859
2018-01-01T05:53:47.713Z,98859
2018-01-01T05:56:15.885Z,98853
2018-01-01T05:58:44.021Z,98863
2018-01-01T06:01:12.298Z,98850
2018-01-01T06:03:40.433Z,98854
2018-01-01T06:06:08.981Z,98860
2018-01-01T06:08:37.120Z,98855
2018-01-01T06:11:05.248Z,98868
2018-01-01T06:13:33.417Z,98878
2018-01-01T06:16:01.789Z,98885
2018-01-01T06:18:29.931Z,98894
2018-01-01T06:20:58.025Z,98904
2018-01-01T06:23:26.133Z,98901
2018-01-01T06:25:54.268Z,98910
2018-01-01T06:28:22.425Z,98909
2018-01-01T06:30:51.631Z,98901
2018-01-01T06:33:19.737Z,98916
2018-01-01T06:35:47.865Z,98921
2018-01-01T06:38:16.736Z,98934
2018-01-01T06:40:44.891Z,98940
2018-01-01T06:43:13.018Z,98921
2018-01-01T06:45:42.361Z,98933
2018-01-01T06:48:10.469Z,98935
2018-01-01T06:50:39.364Z,98950
2018-01-01T06:53:09.220Z,98956
2018-01-01T06:55:37.693Z,98979
2018-01-01T06:58:06.205Z,98963
2018-01-01T07:00:34.345Z,98976
2018-01-01T07:03:02.478Z,98986
2018-01-01T07:05:30.596Z,98973
2018-01-01T07:07:59.571Z,99009
2018-01-01T07:10:27.764Z,99013
2018-01-01T07:12:56.101Z,99025
2018-01-01T07:15:24.232Z,99052
2018-01-01T07:17:52.393Z,99047
2018-01-01T07:20:20.512Z,99056
2018-01-01T07:22:48.616Z,99052
2018-01-01T07:25:16.736Z,99057
2018-01-01T07:27:44.892Z,99062
2018-01-01T07:30:13.106Z,99069
2018-01-01T07:32:41.268Z,99072
2018-01-01T07:35:10.173Z,99071
2018-01-01T07:37:38.316Z,99090
2018-01-01T07:40:06.898Z,99074
2018-01-01T07:42:35.268Z,99100
2018-01-01T07:45:03.437Z,99100
2018-01-01T07:47:31.550Z,99093
2018-01-01T07:49:59.693Z,99094
2018-01-01T07:52:27.997Z,99094
2018-01-01T07:54:56.353Z,99112
2018-01-01T07:57:24.525Z,99120
2018-01-01T07:59:52.653Z,99122
2018-01-01T08:02:20.798Z,99121
2018-01-01T08:04:49.624Z,99128
2018-01-01T08:07:17.852Z,99130
2018-01-01T08:09:46.274Z,99131
2018-01-01T08:12:14.829Z,99176
2018-01-01T08:14:42.963Z,99159
2018-01-01T08:17:11.304Z,99161
2018-01-01T08:19:39.429Z,99155
2018-01-01T08:22:07.560Z,99153
2018-01-01T08:24:35.710Z,99162
2018-01-01T08:27:03.981Z,99167
2018-01-01T08:29:32.413Z,99174
2018-01-01T08:32:00.608Z,99182
2018-01-01T08:34:28.766Z,99197
2018-01-01T08:36:56.900Z,99203
2018-01-01T08:39:25.094Z,99201
2018-01-01T08:41:53.421Z,99189
2018-01-01T08:44:21.865Z,99211
2018-01-01T08:46:50.790Z,99216
2018-01-01T08:49:18.926Z,99213
2018-01-01T08:51:47.645Z,99221
2018-01-01T08:54:15.781Z,99221
2018-01-01T08:56:43.968Z,99235
2018-01-01T08:59:13.341Z,99244
2018-01-01T09:01:41.460Z,99241
2018-01-01T09:04:09.596Z,99262
2018-01-01T09:06:37.747Z,99254
2018-01-01T09:09:05.980Z,99256
2018-01-01T09:11:34.269Z,99247
2018-01-01T09:14:02.511Z,99251
2018-01-01T09:16:30.831Z,99267
2018-01-01T09:18:59.456Z,99262
2018-01-01T09:21:28.669Z,99275
2018-01-01T09:23:57.680Z,99282
2018-01-01T09:26:25.889Z,99290
2018-01-01T09:28:54.158Z,99296
2018-01-01T09:31:22.393Z,99306
2018-01-01T09:33:50.520Z,99305
2018-01-01T09:36:18.692Z,99296
2018-01-01T09:38:46.836Z,99309
2018-01-01T09:41:16.435Z,99305
2018-01-01T09:43:44.568Z,99317
2018-01-01T09:46:12.762Z,99324
2018-01-01T09:48:40.916Z,99321
2018-01-01T09:51:10.588Z,99325
2018-01-01T09:53:38.710Z,99327
2018-01-01T09:56:08.509Z,99321
2018-01-01T09:58:36.634Z,99321
2018-01-01T10:01:04.773Z,99307
2018-01-01T10:03:33.366Z,99329
2018-01-01T10:06:02.353Z,99327
2018-01-01T10:08:30.497Z,99326
2018-01-01T10:10:59.174Z,99337
2018-01-01T10:13:27.308Z,99341
2018-01-01T10:15:55.425Z,99337
2018-01-01T10:18:23.840Z,99323
2018-01-01T10:20:52.723Z,99327
2018-01-01T10:23:20.880Z,99332
2018-01-01T10:25:49.000Z,99337
2018-01-01T10:28:17.464Z,99324
2018-01-01T10:30:45.637Z,99332
2018-01-01T10:33:14.496Z,99331
2018-01-01T10:35:42.645Z,99324
2018-01-01T10:38:10.777Z,99324
2018-01-01T10:40:39.637Z,99329
2018-01-01T10:43:08.471Z,99318
2018-01-01T10:45:37.703Z,99323
2018-01-01T10:48:05.878Z,99328
2018-01-01T10:50:34.013Z,99323
2018-01-01T10:53:03.052Z,99318
2018-01-01T10:55:31.186Z,99319
2018-01-01T10:57:59.342Z,99317
2018-01-01T11:00:27.665Z,99318
2018-01-01T11:02:56.224Z,99312
2018-01-01T11:05:24.374Z,99325
2018-01-01T11:07:52.500Z,99315
2018-01-01T11:10:20.628Z,99320
2018-01-01T11:12:48.761Z,99317
2018-01-01T11:15:16.900Z,99328
2018-01-01T11:17:45.913Z,99319
2018-01-01T11:20:14.060Z,99321
2018-01-01T11:22:42.432Z,99326
2018-01-01T11:25:11.221Z,99328
2018-01-01T11:27:39.381Z,99334
2018-01-01T11:30:07.481Z,99330
2018-01-01T11:32:35.604Z,99324
2018-01-01T11:35:03.780Z,99329
2018-01-01T11:37:31.897Z,99343
2018-01-01T11:40:00.693Z,99335
2018-01-01T11:42:28.845Z,99326
2018-01-01T11:44:57.707Z,99327
2018-01-01T11:47:26.039Z,99340
2018-01-01T11:49:54.238Z,99333
2018-01-01T11:52:22.692Z,99329
2018-01-01T11:54:51.250Z,99326
2018-01-01T11:57:19.706Z,99332
2018-01-01T11:59:48.146Z,99329
2018-01-01T12:02:19.230Z,99326
2018-01-01T12:04:49.856Z,99322
2018-01-01T12:07:19.375Z,99317
2018-01-01T12:09:47.609Z,99335
2018-01-01T12:12:19.539Z,99325
2018-01-01T12:14:43.913Z,99340
2018-01-01T12:17:13.941Z,99317
2018-01-01T12:19:42.096Z,99333
2018-01-01T12:22:10.612Z,99326
2018-01-01T12:24:38.773Z,99322
2018-01-01T12:27:07.893Z,99326
2018-01-01T12:29:36.117Z,99323
2018-01-01T12:32:05.961Z,99322
2018-01-01T12:34:34.504Z,99321
2018-01-01T12:37:02.630Z,99312
2018-01-01T12:39:31.165Z,99289
2018-01-01T12:42:00.489Z,99289
2018-01-01T12:44:30.753Z,99286
2018-01-01T12:46:58.888Z,99284
2018-01-01T12:49:27.033Z,99285
2018-01-01T12:51:55.356Z,99281
2018-01-01T12:54:23.516Z,99269
2018-01-01T12:56:51.640Z,99277
2018-01-01T12:59:20.151Z,99280
2018-01-01T13:01:48.260Z,99277
2018-01-01T13:04:16.382Z,99276
2018-01-01T13:06:44.509Z,99289
2018-01-01T13:09:12.669Z,99284
2018-01-01T13:11:41.572Z,99283
2018-01-01T13:14:09.725Z,99276
2018-01-01T13:16:37.841Z,99273
2018-01-01T13:19:06.937Z,99259
2018-01-01T13:21:35.149Z,99268
2018-01-01T13:24:03.289Z,99263
2018-01-01T13:26:31.429Z,99253
2018-01-01T13:29:00.280Z,99248
2018-01-01T13:31:30.571Z,99242
2018-01-01T13:33:58.682Z,99256
2018-01-01T13:36:26.828Z,99252
2018-01-01T13:38:54.952Z,99252
2018-01-01T13:41:23.069Z,99254
2018-01-01T13:43:51.196Z,99262
2018-01-01T13:46:20.053Z,99266
2018-01-01T13:48:48.503Z,99267
2018-01-01T13:51:16.661Z,99271
2018-01-01T13:53:44.776Z,99251
2018-01-01T13:56:12.925Z,99253
2018-01-01T13:58:41.065Z,99256
2018-01-01T14:01:09.934Z,99247
2018-01-01T14:03:38.808Z,99255
2018-01-01T14:06:06.929Z,99253
2018-01-01T14:08:35.801Z,99252
2018-01-01T14:11:05.186Z,99253
2018-01-01T14:13:33.329Z,99258
2018-01-01T14:16:01.458Z,99250
2018-01-01T14:18:30.344Z,99254
2018-01-01T14:20:59.189Z,99247
2018-01-01T14:23:27.368Z,99246
2018-01-01T14:25:55.816Z,99253
2018-01-01T14:28:24.020Z,99238
2018-01-01T14:30:52.141Z,99241
2018-01-01T14:33:20.989Z,99243
2018-01-01T14:35:49.097Z,99245
2018-01-01T14:38:17.973Z,99238
2018-01-01T14:40:46.349Z,99246
2018-01-01T14:43:14.491Z,99247
2018-01-01T14:45:43.034Z,99238
2018-01-01T14:48:11.893Z,99244
2018-01-01T14:50:40.018Z,99242
2018-01-01T14:53:08.176Z,99244
2018-01-01T14:55:37.045Z,99238
2018-01-01T14:58:05.227Z,99222
2018-01-01T15:00:33.357Z,99237
2018-01-01T15:03:01.501Z,99239
2018-01-01T15:05:30.369Z,99245
2018-01-01T15:07:58.492Z,99247
2018-01-01T15:10:26.677Z,99241
2018-01-01T15:12:54.900Z,99244
2018-01-01T15:15:23.038Z,99236
2018-01-01T15:17:51.565Z,99226
2018-01-01T15:20:19.688Z,99224
2018-01-01T15:22:47.813Z,99220
2018-01-01T15:25:15.933Z,99210
2018-01-01T15:27:44.292Z,99234
2018-01-01T15:30:12.569Z,99239
2018-01-01T15:32:40.831Z,99237
2018-01-01T15:35:08.957Z,99243
2018-01-01T15:37:37.273Z,99241
2018-01-01T15:40:05.754Z,99240
2018-01-01T15:42:34.456Z,99249
2018-01-01T15:45:02.945Z,99238
2018-01-01T15:47:32.018Z,99244
2018-01-01T15:50:00.158Z,99257
2018-01-01T15:52:28.344Z,99254
2018-01-01T15:54:57.373Z,99255
2018-01-01T15:57:25.560Z,99264
2018-01-01T15:59:53.773Z,99261
2018-01-01T16:02:21.921Z,99255
2018-01-01T16:04:50.209Z,99255
2018-01-01T16:08:48.164Z,99258
2018-01-01T16:11:16.365Z,99261
2018-01-01T16:13:44.613Z,99263
2018-01-01T16:16:12.754Z,99263
2018-01-01T16:18:41.750Z,99250
2018-01-01T16:21:10.983Z,99241
2018-01-01T16:23:39.523Z,99254
2018-01-01T16:26:08.744Z,99257
2018-01-01T16:28:36.985Z,99255
2018-01-01T16:31:06.051Z,99257
2018-01-01T16:33:34.185Z,99255
2018-01-01T16:36:02.330Z,99261
2018-01-01T16:38:31.356Z,99255
2018-01-01T16:41:00.428Z,99246
2018-01-01T16:43:28.963Z,99246
2018-01-01T16:45:57.081Z,99244
2018-01-01T16:48:25.452Z,99238
2018-01-01T16:50:53.734Z,99240
2018-01-01T16:53:22.824Z,99235
2018-01-01T16:55:50.965Z,99239
2018-01-01T16:58:19.097Z,99237
2018-01-01T17:00:47.373Z,99240
2018-01-01T17:03:16.256Z,99240
2018-01-01T17:05:45.803Z,99239
2018-01-01T17:08:14.560Z,99230
2018-01-01T17:10:42.753Z,99239
2018-01-01T17:13:10.931Z,99230
2018-01-01T17:15:39.072Z,99231
2018-01-01T17:18:08.741Z,99220
2018-01-01T17:20:36.889Z,99224
2018-01-01T17:23:05.073Z,99225
2018-01-01T17:25:33.232Z,99220
2018-01-01T17:28:01.414Z,99234
2018-01-01T17:30:29.617Z,99232
2018-01-01T17:32:57.854Z,99245
2018-01-01T17:35:26.160Z,99233
2018-01-01T17:37:54.393Z,99229
2018-01-01T17:40:22.604Z,99242
2018-01-01T17:42:50.804Z,99235
2018-01-01T17:45:19.060Z,99231
2018-01-01T17:47:47.660Z,99240
2018-01-01T17:50:15.880Z,99240
2018-01-01T17:52:44.064Z,99249
2018-01-01T17:55:12.298Z,99254
2018-01-01T17:57:40.503Z,99252
2018-01-01T18:00:08.733Z,99255
2018-01-01T18:02:36.957Z,99260
2018-01-01T18:05:05.933Z,99259
2018-01-01T18:07:34.098Z,99254
2018-01-01T18:10:03.959Z,99252
2018-01-01T18:12:32.184Z,99256
2018-01-01T18:15:00.337Z,99253
2018-01-01T18:17:28.665Z,99243
2018-01-01T18:19:56.884Z,99265
2018-01-01T18:22:25.057Z,99260
2018-01-01T18:24:53.237Z,99257
2018-01-01T18:27:21.380Z,99271
2018-01-01T18:29:49.849Z,99271
2018-01-01T18:32:18.011Z,99264
2018-01-01T18:34:46.178Z,99263
2018-01-01T18:37:15.095Z,99260
2018-01-01T18:39:43.332Z,99267
2018-01-01T18:42:11.488Z,99265
2018-01-01T18:44:39.724Z,99277
2018-01-01T18:47:08.028Z,99273
2018-01-01T18:49:36.549Z,99266
2018-01-01T18:52:05.905Z,99260
2018-01-01T18:54:34.078Z,99256
2018-01-01T18:57:02.244Z,99263
2018-01-01T18:59:30.413Z,99262
2018-01-01T19:01:58.611Z,99259
2018-01-01T19:04:26.780Z,99264
2018-01-01T19:06:56.275Z,99249
2018-01-01T19:09:24.405Z,99275
2018-01-01T19:11:53.320Z,99264
2018-01-01T19:14:21.524Z,99268
2018-01-01T19:16:49.701Z,99274
2018-01-01T19:19:17.901Z,99268
2018-01-01T19:21:46.092Z,99263
2018-01-01T19:24:14.325Z,99268
2018-01-01T19:26:42.536Z,99266
2018-01-01T19:29:10.740Z,99268
2018-01-01T19:31:39.701Z,99255
2018-01-01T19:34:08.332Z,99252
2018-01-01T19:36:36.561Z,99256
2018-01-01T19:39:05.481Z,99249
2018-01-01T19:41:34.363Z,99250
2018-01-01T19:44:03.245Z,99243
2018-01-01T19:46:31.382Z,99258
2018-01-01T19:48:59.565Z,99254
2018-01-01T19:51:27.696Z,99260
2018-01-01T19:53:56.002Z,99267
2018-01-01T19:56:24.149Z,99263
2018-01-01T19:58:52.297Z,99257
2018-01-01T20:01:22.669Z,99264
2018-01-01T20:03:50.909Z,99256
2018-01-01T20:06:19.793Z,99272
2018-01-01T20:08:48.893Z,99258
2018-01-01T20:11:17.114Z,99246
2018-01-01T20:13:45.288Z,99253
2018-01-01T20:16:13.565Z,99257
2018-01-01T20:18:42.011Z,99250
2018-01-01T20:21:10.997Z,99257
2018-01-01T20:23:40.224Z,99250
2018-01-01T20:26:08.370Z,99267
2018-01-01T20:28:37.515Z,99264
2018-01-01T20:31:05.668Z,99255
2018-01-01T20:33:34.287Z,99258
2018-01-01T20:36:02.482Z,99260
2018-01-01T20:38:30.813Z,99260
2018-01-01T20:40:58.980Z,99265
2018-01-01T20:43:27.545Z,99261
2018-01-01T20:45:55.760Z,99265
2018-01-01T20:48:23.953Z,99264
2018-01-01T20:50:52.478Z,99263
2018-01-01T20:53:20.589Z,99258
2018-01-01T20:55:48.740Z,99250
2018-01-01T20:58:17.728Z,99249
2018-01-01T21:00:46.134Z,99247
2018-01-01T21:03:14.521Z,99253
2018-01-01T21:05:42.949Z,99257
2018-01-01T21:08:11.849Z,99261
2018-01-01T21:10:40.008Z,99261
2018-01-01T21:13:08.137Z,99267
2018-01-01T21:15:36.316Z,99267
2018-01-01T21:18:04.516Z,99266
2018-01-01T21:20:32.859Z,99269
2018-01-01T21:23:00.993Z,99275
2018-01-01T21:25:30.153Z,99286
2018-01-01T21:27:59.018Z,99291
2018-01-01T21:30:27.168Z,99273
2018-01-01T21:32:55.311Z,99287
2018-01-01T21:35:23.796Z,99289
2018-01-01T21:37:52.005Z,99290
2018-01-01T21:40:20.139Z,99279
2018-01-01T21:42:48.376Z,99288
2018-01-01T21:45:16.732Z,99295
2018-01-01T21:47:44.910Z,99293
2018-01-01T21:50:13.045Z,99294
2018-01-01T21:52:41.261Z,99292
2018-01-01T21:55:09.663Z,99291
2018-01-01T21:57:37.820Z,99300
2018-01-01T22:00:06.113Z,99304
2018-01-01T22:02:34.902Z,99307
2018-01-01T22:05:03.781Z,99288
2018-01-01T22:07:32.423Z,99314
2018-01-01T22:10:01.634Z,99306
2018-01-01T22:12:29.776Z,99307
2018-01-01T22:14:57.902Z,99319
2018-01-01T22:17:26.517Z,99323
2018-01-01T22:19:55.261Z,99333
2018-01-01T22:22:23.396Z,99331
2018-01-01T22:24:52.585Z,99323
2018-01-01T22:27:20.734Z,99323
2018-01-01T22:29:48.877Z,99357
2018-01-01T22:32:17.637Z,99336
2018-01-01T22:34:46.048Z,99334
2018-01-01T22:37:14.257Z,99334
2018-01-01T22:39:42.585Z,99341
2018-01-01T22:42:11.798Z,99340
2018-01-01T22:44:40.297Z,99336
2018-01-01T22:47:08.434Z,99346
2018-01-01T22:49:36.595Z,99343
2018-01-01T22:52:05.350Z,99348
2018-01-01T22:54:33.780Z,99353
2018-01-01T22:57:01.937Z,99356
2018-01-01T22:59:30.174Z,99358
2018-01-01T23:01:59.106Z,99352
2018-01-01T23:04:27.249Z,99352
2018-01-01T23:06:56.338Z,99359
2018-01-01T23:09:25.108Z,99342
2018-01-01T23:11:53.336Z,99345
2018-01-01T23:14:21.993Z,99346
2018-01-01T23:16:50.264Z,99349
2018-01-01T23:19:18.394Z,99351
2018-01-01T23:21:47.605Z,99355
2018-01-01T23:24:16.349Z,99362
2018-01-01T23:26:44.478Z,99368
2018-01-01T23:29:16.061Z,99370
2018-01-01T23:31:44.356Z,99362
2018-01-01T23:34:12.894Z,99363
2018-01-01T23:36:41.062Z,99367
2018-01-01T23:39:10.497Z,99361
2018-01-01T23:41:39.333Z,99376
2018-01-01T23:44:08.749Z,99376
2018-01-01T23:46:37.472Z,99370
2018-01-01T23:49:05.809Z,99378
2018-01-01T23:51:34.116Z,99390
2018-01-01T23:54:02.725Z,99381
2018-01-01T23:56:31.178Z,99368
2018-01-01T23:59:00.633Z,99380
